sensor_id;sensor_type;location;lat;lon;timestamp;P1;durP1;ratioP1;P2;durP2;ratioP2
6997;SDS011;3539;47.982;12.238;2023-02-11T00:00:10;27.13;;;16.70;;
6997;SDS011;3539;47.982;12.238;2023-02-11T00:02:37;27.53;;;16.60;;
6997;SDS011;3539;47.982;12.238;2023-02-11T00:05:04;27.87;;;17.57;;
6997;SDS011;3539;47.982;12.238;2023-02-11T00:07:32;25.80;;;16.93;;
6997;SDS011;3539;47.982;12.238;2023-02-11T00:10:00;27.37;;;16.40;;
6997;SDS011;3539;47.982;12.238;2023-02-11T00:12:27;24.97;;;14.73;;
6997;SDS011;3539;47.982;12.238;2023-02-11T00:14:54;26.03;;;16.40;;
6997;SDS011;3539;47.982;12.238;2023-02-11T00:17:21;28.53;;;18.33;;
6997;SDS011;3539;47.982;12.238;2023-02-11T00:19:48;28.47;;;18.43;;
6997;SDS011;3539;47.982;12.238;2023-02-11T00:22:15;30.83;;;17.90;;
6997;SDS011;3539;47.982;12.238;2023-02-11T00:24:42;25.73;;;17.17;;
6997;SDS011;3539;47.982;12.238;2023-02-11T00:27:10;25.37;;;16.90;;
6997;SDS011;3539;47.982;12.238;2023-02-11T00:29:37;27.60;;;16.73;;
6997;SDS011;3539;47.982;12.238;2023-02-11T00:32:04;30.53;;;17.87;;
6997;SDS011;3539;47.982;12.238;2023-02-11T00:34:33;30.73;;;19.40;;
6997;SDS011;3539;47.982;12.238;2023-02-11T00:37:00;31.50;;;18.90;;
6997;SDS011;3539;47.982;12.238;2023-02-11T00:39:26;29.30;;;19.07;;
6997;SDS011;3539;47.982;12.238;2023-02-11T00:41:53;29.87;;;18.07;;
6997;SDS011;3539;47.982;12.238;2023-02-11T00:44:24;29.70;;;16.53;;
6997;SDS011;3539;47.982;12.238;2023-02-11T00:46:51;27.77;;;17.60;;
6997;SDS011;3539;47.982;12.238;2023-02-11T00:49:18;28.50;;;17.57;;
6997;SDS011;3539;47.982;12.238;2023-02-11T00:51:44;27.27;;;18.97;;
6997;SDS011;3539;47.982;12.238;2023-02-11T00:54:11;30.10;;;18.20;;
6997;SDS011;3539;47.982;12.238;2023-02-11T00:56:38;28.83;;;17.30;;
6997;SDS011;3539;47.982;12.238;2023-02-11T00:59:04;27.30;;;16.43;;
6997;SDS011;3539;47.982;12.238;2023-02-11T01:01:33;27.93;;;16.77;;
6997;SDS011;3539;47.982;12.238;2023-02-11T01:03:59;34.37;;;18.57;;
6997;SDS011;3539;47.982;12.238;2023-02-11T01:06:26;30.77;;;19.17;;
6997;SDS011;3539;47.982;12.238;2023-02-11T01:08:53;29.53;;;19.07;;
6997;SDS011;3539;47.982;12.238;2023-02-11T01:11:22;29.53;;;19.00;;
6997;SDS011;3539;47.982;12.238;2023-02-11T01:13:49;29.63;;;17.33;;
6997;SDS011;3539;47.982;12.238;2023-02-11T01:16:16;25.87;;;16.73;;
6997;SDS011;3539;47.982;12.238;2023-02-11T01:18:46;28.03;;;17.87;;
6997;SDS011;3539;47.982;12.238;2023-02-11T01:21:13;34.03;;;17.87;;
6997;SDS011;3539;47.982;12.238;2023-02-11T01:23:40;27.07;;;18.43;;
6997;SDS011;3539;47.982;12.238;2023-02-11T01:26:07;31.20;;;19.10;;
6997;SDS011;3539;47.982;12.238;2023-02-11T01:28:33;27.80;;;18.37;;
6997;SDS011;3539;47.982;12.238;2023-02-11T01:31:00;30.57;;;19.07;;
6997;SDS011;3539;47.982;12.238;2023-02-11T01:33:27;26.83;;;16.47;;
6997;SDS011;3539;47.982;12.238;2023-02-11T01:35:58;29.77;;;17.40;;
6997;SDS011;3539;47.982;12.238;2023-02-11T01:38:25;27.67;;;17.90;;
6997;SDS011;3539;47.982;12.238;2023-02-11T01:40:53;27.70;;;18.70;;
6997;SDS011;3539;47.982;12.238;2023-02-11T01:43:22;30.03;;;17.17;;
6997;SDS011;3539;47.982;12.238;2023-02-11T01:45:55;28.20;;;17.83;;
6997;SDS011;3539;47.982;12.238;2023-02-11T01:48:27;31.00;;;16.60;;
6997;SDS011;3539;47.982;12.238;2023-02-11T01:50:58;27.67;;;16.47;;
6997;SDS011;3539;47.982;12.238;2023-02-11T01:53:28;27.37;;;17.23;;
6997;SDS011;3539;47.982;12.238;2023-02-11T01:56:12;24.50;;;16.40;;
6997;SDS011;3539;47.982;12.238;2023-02-11T01:59:00;25.87;;;15.87;;
6997;SDS011;3539;47.982;12.238;2023-02-11T02:01:29;23.90;;;15.13;;
6997;SDS011;3539;47.982;12.238;2023-02-11T02:03:58;23.93;;;14.93;;
6997;SDS011;3539;47.982;12.238;2023-02-11T02:06:30;23.57;;;14.23;;
6997;SDS011;3539;47.982;12.238;2023-02-11T02:09:00;21.17;;;14.27;;
6997;SDS011;3539;47.982;12.238;2023-02-11T02:11:28;21.90;;;14.70;;
6997;SDS011;3539;47.982;12.238;2023-02-11T02:13:55;23.70;;;14.60;;
6997;SDS011;3539;47.982;12.238;2023-02-11T02:16:23;22.83;;;14.37;;
6997;SDS011;3539;47.982;12.238;2023-02-11T02:18:53;22.93;;;14.93;;
6997;SDS011;3539;47.982;12.238;2023-02-11T02:24:43;23.77;;;14.33;;
6997;SDS011;3539;47.982;12.238;2023-02-11T02:27:33;21.17;;;13.47;;
6997;SDS011;3539;47.982;12.238;2023-02-11T02:30:10;19.83;;;13.00;;
6997;SDS011;3539;47.982;12.238;2023-02-11T02:33:03;20.83;;;13.73;;
6997;SDS011;3539;47.982;12.238;2023-02-11T02:35:39;24.90;;;13.47;;
6997;SDS011;3539;47.982;12.238;2023-02-11T02:38:10;21.47;;;12.73;;
6997;SDS011;3539;47.982;12.238;2023-02-11T02:40:42;24.87;;;14.43;;
6997;SDS011;3539;47.982;12.238;2023-02-11T02:43:11;19.43;;;13.50;;
6997;SDS011;3539;47.982;12.238;2023-02-11T02:45:39;19.83;;;13.17;;
6997;SDS011;3539;47.982;12.238;2023-02-11T02:48:20;24.73;;;14.70;;
6997;SDS011;3539;47.982;12.238;2023-02-11T02:50:52;20.67;;;13.43;;
6997;SDS011;3539;47.982;12.238;2023-02-11T02:53:23;21.40;;;14.13;;
6997;SDS011;3539;47.982;12.238;2023-02-11T02:55:59;22.77;;;14.57;;
6997;SDS011;3539;47.982;12.238;2023-02-11T02:58:34;26.30;;;14.63;;
6997;SDS011;3539;47.982;12.238;2023-02-11T03:01:30;23.00;;;13.93;;
6997;SDS011;3539;47.982;12.238;2023-02-11T03:04:04;25.20;;;15.27;;
6997;SDS011;3539;47.982;12.238;2023-02-11T03:06:38;27.57;;;14.50;;
6997;SDS011;3539;47.982;12.238;2023-02-11T03:09:13;22.77;;;14.37;;
6997;SDS011;3539;47.982;12.238;2023-02-11T03:11:42;21.20;;;14.07;;
6997;SDS011;3539;47.982;12.238;2023-02-11T03:14:09;24.77;;;14.90;;
6997;SDS011;3539;47.982;12.238;2023-02-11T03:16:37;24.33;;;14.57;;
6997;SDS011;3539;47.982;12.238;2023-02-11T03:19:07;24.57;;;14.90;;
6997;SDS011;3539;47.982;12.238;2023-02-11T03:21:37;21.37;;;14.43;;
6997;SDS011;3539;47.982;12.238;2023-02-11T03:24:05;26.17;;;15.73;;
6997;SDS011;3539;47.982;12.238;2023-02-11T03:26:34;27.20;;;15.73;;
6997;SDS011;3539;47.982;12.238;2023-02-11T03:29:05;22.70;;;14.43;;
6997;SDS011;3539;47.982;12.238;2023-02-11T03:31:38;23.10;;;14.93;;
6997;SDS011;3539;47.982;12.238;2023-02-11T03:34:09;22.03;;;14.00;;
6997;SDS011;3539;47.982;12.238;2023-02-11T03:36:40;22.80;;;14.50;;
6997;SDS011;3539;47.982;12.238;2023-02-11T03:39:11;23.77;;;14.63;;
6997;SDS011;3539;47.982;12.238;2023-02-11T03:41:39;22.37;;;14.00;;
6997;SDS011;3539;47.982;12.238;2023-02-11T03:44:06;23.40;;;13.10;;
6997;SDS011;3539;47.982;12.238;2023-02-11T03:46:35;21.37;;;13.87;;
6997;SDS011;3539;47.982;12.238;2023-02-11T03:49:03;22.70;;;14.67;;
6997;SDS011;3539;47.982;12.238;2023-02-11T03:51:35;18.73;;;12.70;;
6997;SDS011;3539;47.982;12.238;2023-02-11T03:54:03;19.77;;;12.07;;
6997;SDS011;3539;47.982;12.238;2023-02-11T03:56:34;20.33;;;12.93;;
6997;SDS011;3539;47.982;12.238;2023-02-11T03:59:03;22.83;;;12.70;;
6997;SDS011;3539;47.982;12.238;2023-02-11T04:01:29;19.20;;;12.83;;
6997;SDS011;3539;47.982;12.238;2023-02-11T04:03:57;23.13;;;12.97;;
6997;SDS011;3539;47.982;12.238;2023-02-11T04:06:23;18.57;;;12.03;;
6997;SDS011;3539;47.982;12.238;2023-02-11T04:08:51;21.43;;;12.20;;
6997;SDS011;3539;47.982;12.238;2023-02-11T04:11:18;21.17;;;12.77;;
6997;SDS011;3539;47.982;12.238;2023-02-11T04:13:45;18.53;;;11.83;;
6997;SDS011;3539;47.982;12.238;2023-02-11T04:16:11;23.10;;;11.60;;
6997;SDS011;3539;47.982;12.238;2023-02-11T04:18:38;17.90;;;12.03;;
6997;SDS011;3539;47.982;12.238;2023-02-11T04:21:05;19.13;;;11.80;;
6997;SDS011;3539;47.982;12.238;2023-02-11T04:23:32;19.13;;;12.27;;
6997;SDS011;3539;47.982;12.238;2023-02-11T04:26:00;17.77;;;12.03;;
6997;SDS011;3539;47.982;12.238;2023-02-11T04:28:26;18.87;;;12.53;;
6997;SDS011;3539;47.982;12.238;2023-02-11T04:30:53;18.33;;;12.33;;
6997;SDS011;3539;47.982;12.238;2023-02-11T04:33:21;18.63;;;12.90;;
6997;SDS011;3539;47.982;12.238;2023-02-11T04:35:47;16.83;;;11.30;;
6997;SDS011;3539;47.982;12.238;2023-02-11T04:38:15;21.33;;;12.97;;
6997;SDS011;3539;47.982;12.238;2023-02-11T04:40:42;17.13;;;12.20;;
6997;SDS011;3539;47.982;12.238;2023-02-11T04:43:10;21.43;;;12.63;;
6997;SDS011;3539;47.982;12.238;2023-02-11T04:45:36;20.13;;;13.47;;
6997;SDS011;3539;47.982;12.238;2023-02-11T04:48:03;19.23;;;12.30;;
6997;SDS011;3539;47.982;12.238;2023-02-11T04:50:30;18.77;;;12.33;;
6997;SDS011;3539;47.982;12.238;2023-02-11T04:52:57;19.83;;;11.87;;
6997;SDS011;3539;47.982;12.238;2023-02-11T04:55:24;18.67;;;11.50;;
6997;SDS011;3539;47.982;12.238;2023-02-11T04:57:51;17.60;;;11.23;;
6997;SDS011;3539;47.982;12.238;2023-02-11T05:00:20;16.20;;;10.37;;
6997;SDS011;3539;47.982;12.238;2023-02-11T05:02:47;14.23;;;10.27;;
6997;SDS011;3539;47.982;12.238;2023-02-11T05:05:14;16.67;;;10.50;;
6997;SDS011;3539;47.982;12.238;2023-02-11T05:07:41;17.57;;;10.10;;
6997;SDS011;3539;47.982;12.238;2023-02-11T05:10:08;15.37;;;9.57;;
6997;SDS011;3539;47.982;12.238;2023-02-11T05:12:35;15.00;;;10.50;;
6997;SDS011;3539;47.982;12.238;2023-02-11T05:15:02;15.43;;;9.83;;
6997;SDS011;3539;47.982;12.238;2023-02-11T05:17:30;15.97;;;9.90;;
6997;SDS011;3539;47.982;12.238;2023-02-11T05:19:57;14.17;;;9.40;;
6997;SDS011;3539;47.982;12.238;2023-02-11T05:22:24;16.47;;;9.63;;
6997;SDS011;3539;47.982;12.238;2023-02-11T05:24:50;16.07;;;9.63;;
6997;SDS011;3539;47.982;12.238;2023-02-11T05:27:17;19.90;;;10.93;;
6997;SDS011;3539;47.982;12.238;2023-02-11T05:29:44;16.77;;;10.93;;
6997;SDS011;3539;47.982;12.238;2023-02-11T05:32:12;17.97;;;11.00;;
6997;SDS011;3539;47.982;12.238;2023-02-11T05:34:40;17.90;;;9.63;;
6997;SDS011;3539;47.982;12.238;2023-02-11T05:37:07;17.90;;;11.43;;
6997;SDS011;3539;47.982;12.238;2023-02-11T05:39:34;19.80;;;11.83;;
6997;SDS011;3539;47.982;12.238;2023-02-11T05:42:01;22.57;;;13.50;;
6997;SDS011;3539;47.982;12.238;2023-02-11T05:44:28;19.13;;;12.00;;
6997;SDS011;3539;47.982;12.238;2023-02-11T05:46:55;20.10;;;12.10;;
6997;SDS011;3539;47.982;12.238;2023-02-11T05:49:22;20.77;;;13.10;;
6997;SDS011;3539;47.982;12.238;2023-02-11T05:51:50;15.30;;;10.07;;
6997;SDS011;3539;47.982;12.238;2023-02-11T05:54:17;17.87;;;9.77;;
6997;SDS011;3539;47.982;12.238;2023-02-11T05:56:44;17.57;;;10.37;;
6997;SDS011;3539;47.982;12.238;2023-02-11T05:59:11;17.53;;;10.20;;
6997;SDS011;3539;47.982;12.238;2023-02-11T06:01:38;17.97;;;10.70;;
6997;SDS011;3539;47.982;12.238;2023-02-11T06:04:05;16.47;;;9.93;;
6997;SDS011;3539;47.982;12.238;2023-02-11T06:06:32;15.80;;;10.37;;
6997;SDS011;3539;47.982;12.238;2023-02-11T06:09:00;17.53;;;10.73;;
6997;SDS011;3539;47.982;12.238;2023-02-11T06:11:27;16.77;;;10.87;;
6997;SDS011;3539;47.982;12.238;2023-02-11T06:13:54;17.17;;;11.77;;
6997;SDS011;3539;47.982;12.238;2023-02-11T06:16:20;16.93;;;11.60;;
6997;SDS011;3539;47.982;12.238;2023-02-11T06:18:47;15.90;;;11.30;;
6997;SDS011;3539;47.982;12.238;2023-02-11T06:21:14;18.60;;;12.10;;
6997;SDS011;3539;47.982;12.238;2023-02-11T06:23:41;24.20;;;19.63;;
6997;SDS011;3539;47.982;12.238;2023-02-11T06:26:15;17.43;;;12.43;;
6997;SDS011;3539;47.982;12.238;2023-02-11T06:28:43;19.00;;;10.90;;
6997;SDS011;3539;47.982;12.238;2023-02-11T06:31:10;20.50;;;11.87;;
6997;SDS011;3539;47.982;12.238;2023-02-11T06:33:37;18.17;;;12.07;;
6997;SDS011;3539;47.982;12.238;2023-02-11T06:36:08;19.57;;;12.33;;
6997;SDS011;3539;47.982;12.238;2023-02-11T06:38:38;28.30;;;15.87;;
6997;SDS011;3539;47.982;12.238;2023-02-11T06:41:05;81.47;;;38.40;;
6997;SDS011;3539;47.982;12.238;2023-02-11T06:43:33;69.00;;;32.13;;
6997;SDS011;3539;47.982;12.238;2023-02-11T06:46:00;31.70;;;17.70;;
6997;SDS011;3539;47.982;12.238;2023-02-11T06:48:29;17.87;;;12.70;;
6997;SDS011;3539;47.982;12.238;2023-02-11T06:50:55;19.77;;;12.87;;
6997;SDS011;3539;47.982;12.238;2023-02-11T06:53:22;17.77;;;11.83;;
6997;SDS011;3539;47.982;12.238;2023-02-11T06:55:49;21.63;;;12.93;;
6997;SDS011;3539;47.982;12.238;2023-02-11T06:58:16;16.97;;;11.50;;
6997;SDS011;3539;47.982;12.238;2023-02-11T07:00:45;38.23;;;21.63;;
6997;SDS011;3539;47.982;12.238;2023-02-11T07:03:13;23.60;;;14.47;;
6997;SDS011;3539;47.982;12.238;2023-02-11T07:05:41;21.50;;;13.53;;
6997;SDS011;3539;47.982;12.238;2023-02-11T07:08:08;40.80;;;22.47;;
6997;SDS011;3539;47.982;12.238;2023-02-11T07:10:36;51.97;;;29.60;;
6997;SDS011;3539;47.982;12.238;2023-02-11T07:13:04;27.93;;;17.50;;
6997;SDS011;3539;47.982;12.238;2023-02-11T07:15:35;35.93;;;20.47;;
6997;SDS011;3539;47.982;12.238;2023-02-11T07:18:03;26.50;;;16.83;;
6997;SDS011;3539;47.982;12.238;2023-02-11T07:20:35;19.57;;;13.37;;
6997;SDS011;3539;47.982;12.238;2023-02-11T07:23:03;17.57;;;12.07;;
6997;SDS011;3539;47.982;12.238;2023-02-11T07:25:30;16.03;;;11.13;;
6997;SDS011;3539;47.982;12.238;2023-02-11T07:27:56;17.67;;;11.60;;
6997;SDS011;3539;47.982;12.238;2023-02-11T07:30:23;18.10;;;12.10;;
6997;SDS011;3539;47.982;12.238;2023-02-11T07:32:50;16.33;;;11.33;;
6997;SDS011;3539;47.982;12.238;2023-02-11T07:35:19;19.87;;;12.77;;
6997;SDS011;3539;47.982;12.238;2023-02-11T07:37:46;15.50;;;11.33;;
6997;SDS011;3539;47.982;12.238;2023-02-11T07:40:13;15.03;;;9.93;;
6997;SDS011;3539;47.982;12.238;2023-02-11T07:42:39;13.97;;;9.83;;
6997;SDS011;3539;47.982;12.238;2023-02-11T07:45:07;16.93;;;9.83;;
6997;SDS011;3539;47.982;12.238;2023-02-11T07:47:34;18.47;;;12.47;;
6997;SDS011;3539;47.982;12.238;2023-02-11T07:50:02;14.67;;;9.77;;
6997;SDS011;3539;47.982;12.238;2023-02-11T07:52:30;27.27;;;17.63;;
6997;SDS011;3539;47.982;12.238;2023-02-11T07:54:57;15.20;;;10.70;;
6997;SDS011;3539;47.982;12.238;2023-02-11T07:57:24;25.97;;;17.17;;
6997;SDS011;3539;47.982;12.238;2023-02-11T07:59:51;23.13;;;14.53;;
6997;SDS011;3539;47.982;12.238;2023-02-11T08:02:19;14.47;;;10.00;;
6997;SDS011;3539;47.982;12.238;2023-02-11T08:04:46;12.57;;;8.80;;
6997;SDS011;3539;47.982;12.238;2023-02-11T08:07:14;31.10;;;16.13;;
6997;SDS011;3539;47.982;12.238;2023-02-11T08:09:44;12.13;;;8.70;;
6997;SDS011;3539;47.982;12.238;2023-02-11T08:12:10;10.50;;;7.70;;
6997;SDS011;3539;47.982;12.238;2023-02-11T08:14:37;11.23;;;8.03;;
6997;SDS011;3539;47.982;12.238;2023-02-11T08:17:04;11.00;;;7.10;;
6997;SDS011;3539;47.982;12.238;2023-02-11T08:19:31;13.00;;;8.50;;
6997;SDS011;3539;47.982;12.238;2023-02-11T08:21:58;12.80;;;8.47;;
6997;SDS011;3539;47.982;12.238;2023-02-11T08:24:26;9.90;;;7.87;;
6997;SDS011;3539;47.982;12.238;2023-02-11T08:26:54;11.10;;;7.83;;
6997;SDS011;3539;47.982;12.238;2023-02-11T08:29:21;10.97;;;7.83;;
6997;SDS011;3539;47.982;12.238;2023-02-11T08:31:49;10.47;;;7.57;;
6997;SDS011;3539;47.982;12.238;2023-02-11T08:34:16;11.17;;;6.90;;
6997;SDS011;3539;47.982;12.238;2023-02-11T08:36:44;8.80;;;7.30;;
6997;SDS011;3539;47.982;12.238;2023-02-11T08:39:13;10.27;;;7.20;;
6997;SDS011;3539;47.982;12.238;2023-02-11T08:41:41;10.40;;;7.83;;
6997;SDS011;3539;47.982;12.238;2023-02-11T08:44:10;12.43;;;9.17;;
6997;SDS011;3539;47.982;12.238;2023-02-11T08:46:37;11.33;;;7.73;;
6997;SDS011;3539;47.982;12.238;2023-02-11T08:49:04;10.77;;;7.30;;
6997;SDS011;3539;47.982;12.238;2023-02-11T08:51:31;9.90;;;7.40;;
6997;SDS011;3539;47.982;12.238;2023-02-11T08:53:59;8.53;;;7.10;;
6997;SDS011;3539;47.982;12.238;2023-02-11T08:56:26;8.67;;;7.23;;
6997;SDS011;3539;47.982;12.238;2023-02-11T08:58:55;9.03;;;6.60;;
6997;SDS011;3539;47.982;12.238;2023-02-11T09:01:25;9.93;;;6.50;;
6997;SDS011;3539;47.982;12.238;2023-02-11T09:03:53;9.10;;;6.47;;
6997;SDS011;3539;47.982;12.238;2023-02-11T09:06:21;12.73;;;9.53;;
6997;SDS011;3539;47.982;12.238;2023-02-11T09:08:49;8.70;;;6.90;;
6997;SDS011;3539;47.982;12.238;2023-02-11T09:11:18;8.33;;;6.27;;
6997;SDS011;3539;47.982;12.238;2023-02-11T09:13:46;9.80;;;6.33;;
6997;SDS011;3539;47.982;12.238;2023-02-11T09:16:15;7.20;;;5.97;;
6997;SDS011;3539;47.982;12.238;2023-02-11T09:18:45;9.67;;;6.20;;
6997;SDS011;3539;47.982;12.238;2023-02-11T09:21:12;7.43;;;5.53;;
6997;SDS011;3539;47.982;12.238;2023-02-11T09:23:40;7.67;;;6.10;;
6997;SDS011;3539;47.982;12.238;2023-02-11T09:26:11;7.77;;;5.97;;
6997;SDS011;3539;47.982;12.238;2023-02-11T09:28:39;11.77;;;7.27;;
6997;SDS011;3539;47.982;12.238;2023-02-11T09:31:06;8.63;;;6.50;;
6997;SDS011;3539;47.982;12.238;2023-02-11T09:33:34;11.60;;;5.83;;
6997;SDS011;3539;47.982;12.238;2023-02-11T09:36:03;8.80;;;6.17;;
6997;SDS011;3539;47.982;12.238;2023-02-11T09:38:30;8.87;;;6.07;;
6997;SDS011;3539;47.982;12.238;2023-02-11T09:40:57;7.60;;;5.67;;
6997;SDS011;3539;47.982;12.238;2023-02-11T09:43:29;7.27;;;5.53;;
6997;SDS011;3539;47.982;12.238;2023-02-11T09:45:58;5.23;;;4.63;;
6997;SDS011;3539;47.982;12.238;2023-02-11T09:48:25;7.83;;;5.20;;
6997;SDS011;3539;47.982;12.238;2023-02-11T09:50:53;6.17;;;4.80;;
6997;SDS011;3539;47.982;12.238;2023-02-11T09:53:23;8.53;;;5.33;;
6997;SDS011;3539;47.982;12.238;2023-02-11T09:55:51;7.87;;;4.90;;
6997;SDS011;3539;47.982;12.238;2023-02-11T09:58:23;6.27;;;5.03;;
6997;SDS011;3539;47.982;12.238;2023-02-11T10:00:54;6.30;;;4.63;;
6997;SDS011;3539;47.982;12.238;2023-02-11T10:03:46;8.60;;;5.40;;
6997;SDS011;3539;47.982;12.238;2023-02-11T10:06:24;7.40;;;4.80;;
6997;SDS011;3539;47.982;12.238;2023-02-11T10:09:11;6.57;;;5.00;;
6997;SDS011;3539;47.982;12.238;2023-02-11T10:12:00;5.60;;;4.40;;
6997;SDS011;3539;47.982;12.238;2023-02-11T10:14:42;6.97;;;4.43;;
6997;SDS011;3539;47.982;12.238;2023-02-11T10:17:17;4.93;;;3.93;;
6997;SDS011;3539;47.982;12.238;2023-02-11T10:19:51;4.93;;;3.73;;
6997;SDS011;3539;47.982;12.238;2023-02-11T10:22:27;4.93;;;4.03;;
6997;SDS011;3539;47.982;12.238;2023-02-11T10:24:58;7.13;;;3.57;;
6997;SDS011;3539;47.982;12.238;2023-02-11T10:27:27;5.90;;;3.83;;
6997;SDS011;3539;47.982;12.238;2023-02-11T10:29:58;5.13;;;3.60;;
6997;SDS011;3539;47.982;12.238;2023-02-11T10:32:30;3.90;;;3.43;;
6997;SDS011;3539;47.982;12.238;2023-02-11T10:35:01;5.77;;;3.63;;
6997;SDS011;3539;47.982;12.238;2023-02-11T10:37:36;6.07;;;3.60;;
6997;SDS011;3539;47.982;12.238;2023-02-11T10:40:05;4.83;;;3.27;;
6997;SDS011;3539;47.982;12.238;2023-02-11T10:42:32;6.33;;;3.57;;
6997;SDS011;3539;47.982;12.238;2023-02-11T10:45:01;5.27;;;3.37;;
6997;SDS011;3539;47.982;12.238;2023-02-11T10:47:33;3.70;;;2.97;;
6997;SDS011;3539;47.982;12.238;2023-02-11T10:50:07;4.07;;;3.27;;
6997;SDS011;3539;47.982;12.238;2023-02-11T10:52:44;4.00;;;3.57;;
6997;SDS011;3539;47.982;12.238;2023-02-11T10:55:15;4.27;;;3.30;;
6997;SDS011;3539;47.982;12.238;2023-02-11T10:57:50;8.90;;;4.10;;
6997;SDS011;3539;47.982;12.238;2023-02-11T11:00:26;4.20;;;3.20;;
6997;SDS011;3539;47.982;12.238;2023-02-11T11:03:00;4.17;;;3.33;;
6997;SDS011;3539;47.982;12.238;2023-02-11T11:05:36;4.83;;;3.50;;
6997;SDS011;3539;47.982;12.238;2023-02-11T11:08:12;4.23;;;3.43;;
6997;SDS011;3539;47.982;12.238;2023-02-11T11:10:41;4.77;;;3.07;;
6997;SDS011;3539;47.982;12.238;2023-02-11T11:13:26;4.80;;;3.20;;
6997;SDS011;3539;47.982;12.238;2023-02-11T11:16:14;3.23;;;2.73;;
6997;SDS011;3539;47.982;12.238;2023-02-11T11:18:51;4.60;;;3.13;;
6997;SDS011;3539;47.982;12.238;2023-02-11T11:21:43;4.53;;;2.77;;
6997;SDS011;3539;47.982;12.238;2023-02-11T11:24:15;4.37;;;2.70;;
6997;SDS011;3539;47.982;12.238;2023-02-11T11:26:46;4.80;;;3.03;;
6997;SDS011;3539;47.982;12.238;2023-02-11T11:29:15;3.30;;;2.70;;
6997;SDS011;3539;47.982;12.238;2023-02-11T11:31:47;6.60;;;4.53;;
6997;SDS011;3539;47.982;12.238;2023-02-11T11:34:19;5.40;;;3.00;;
6997;SDS011;3539;47.982;12.238;2023-02-11T11:36:48;4.00;;;3.07;;
6997;SDS011;3539;47.982;12.238;2023-02-11T11:39:17;6.03;;;2.90;;
6997;SDS011;3539;47.982;12.238;2023-02-11T11:41:51;4.20;;;2.47;;
6997;SDS011;3539;47.982;12.238;2023-02-11T11:44:22;3.57;;;2.80;;
6997;SDS011;3539;47.982;12.238;2023-02-11T11:47:04;3.27;;;2.50;;
6997;SDS011;3539;47.982;12.238;2023-02-11T11:49:40;2.97;;;2.53;;
6997;SDS011;3539;47.982;12.238;2023-02-11T11:52:14;3.60;;;2.57;;
6997;SDS011;3539;47.982;12.238;2023-02-11T11:54:46;2.60;;;2.40;;
6997;SDS011;3539;47.982;12.238;2023-02-11T11:57:19;2.70;;;2.10;;
6997;SDS011;3539;47.982;12.238;2023-02-11T11:59:48;3.97;;;2.30;;
6997;SDS011;3539;47.982;12.238;2023-02-11T12:02:24;2.63;;;2.10;;
6997;SDS011;3539;47.982;12.238;2023-02-11T12:05:05;5.70;;;4.13;;
6997;SDS011;3539;47.982;12.238;2023-02-11T12:07:41;5.70;;;3.33;;
6997;SDS011;3539;47.982;12.238;2023-02-11T12:10:23;4.03;;;2.60;;
6997;SDS011;3539;47.982;12.238;2023-02-11T12:13:04;3.27;;;2.70;;
6997;SDS011;3539;47.982;12.238;2023-02-11T12:15:38;3.70;;;2.80;;
6997;SDS011;3539;47.982;12.238;2023-02-11T12:18:16;3.60;;;2.70;;
6997;SDS011;3539;47.982;12.238;2023-02-11T12:20:53;3.83;;;3.17;;
6997;SDS011;3539;47.982;12.238;2023-02-11T12:23:42;5.30;;;2.80;;
6997;SDS011;3539;47.982;12.238;2023-02-11T12:26:18;3.10;;;2.67;;
6997;SDS011;3539;47.982;12.238;2023-02-11T12:28:52;4.93;;;2.77;;
6997;SDS011;3539;47.982;12.238;2023-02-11T12:31:28;7.10;;;5.90;;
6997;SDS011;3539;47.982;12.238;2023-02-11T12:34:15;3.90;;;3.10;;
6997;SDS011;3539;47.982;12.238;2023-02-11T12:37:04;3.53;;;2.80;;
6997;SDS011;3539;47.982;12.238;2023-02-11T12:39:38;4.13;;;2.93;;
6997;SDS011;3539;47.982;12.238;2023-02-11T12:42:18;25.00;;;10.43;;
6997;SDS011;3539;47.982;12.238;2023-02-11T12:45:20;5.47;;;4.57;;
6997;SDS011;3539;47.982;12.238;2023-02-11T12:47:59;5.40;;;3.13;;
6997;SDS011;3539;47.982;12.238;2023-02-11T12:50:39;3.27;;;2.93;;
6997;SDS011;3539;47.982;12.238;2023-02-11T12:56:05;6.37;;;3.73;;
6997;SDS011;3539;47.982;12.238;2023-02-11T12:58:38;3.50;;;2.93;;
6997;SDS011;3539;47.982;12.238;2023-02-11T13:01:08;5.17;;;3.00;;
6997;SDS011;3539;47.982;12.238;2023-02-11T13:03:39;4.60;;;2.97;;
6997;SDS011;3539;47.982;12.238;2023-02-11T13:06:10;4.97;;;3.27;;
6997;SDS011;3539;47.982;12.238;2023-02-11T13:08:39;3.50;;;3.13;;
6997;SDS011;3539;47.982;12.238;2023-02-11T13:11:11;6.27;;;3.50;;
6997;SDS011;3539;47.982;12.238;2023-02-11T13:13:45;5.40;;;3.10;;
6997;SDS011;3539;47.982;12.238;2023-02-11T13:16:16;4.77;;;3.17;;
6997;SDS011;3539;47.982;12.238;2023-02-11T13:18:48;5.50;;;4.00;;
6997;SDS011;3539;47.982;12.238;2023-02-11T13:21:27;6.23;;;4.20;;
6997;SDS011;3539;47.982;12.238;2023-02-11T13:24:16;6.13;;;3.83;;
6997;SDS011;3539;47.982;12.238;2023-02-11T13:26:50;4.80;;;3.13;;
6997;SDS011;3539;47.982;12.238;2023-02-11T13:29:25;3.97;;;3.23;;
6997;SDS011;3539;47.982;12.238;2023-02-11T13:32:06;4.83;;;3.30;;
6997;SDS011;3539;47.982;12.238;2023-02-11T13:37:50;4.73;;;3.30;;
6997;SDS011;3539;47.982;12.238;2023-02-11T13:40:19;3.47;;;3.00;;
6997;SDS011;3539;47.982;12.238;2023-02-11T13:42:48;7.27;;;4.07;;
6997;SDS011;3539;47.982;12.238;2023-02-11T13:45:16;5.73;;;3.77;;
6997;SDS011;3539;47.982;12.238;2023-02-11T13:47:49;6.30;;;4.23;;
6997;SDS011;3539;47.982;12.238;2023-02-11T13:50:22;5.00;;;3.77;;
6997;SDS011;3539;47.982;12.238;2023-02-11T13:52:55;4.63;;;3.30;;
6997;SDS011;3539;47.982;12.238;2023-02-11T13:55:23;4.17;;;3.33;;
6997;SDS011;3539;47.982;12.238;2023-02-11T14:03:23;6.33;;;3.27;;
6997;SDS011;3539;47.982;12.238;2023-02-11T14:06:13;5.57;;;4.47;;
6997;SDS011;3539;47.982;12.238;2023-02-11T14:09:00;4.33;;;3.23;;
6997;SDS011;3539;47.982;12.238;2023-02-11T14:14:58;6.17;;;3.60;;
6997;SDS011;3539;47.982;12.238;2023-02-11T14:17:27;5.73;;;3.60;;
6997;SDS011;3539;47.982;12.238;2023-02-11T14:19:57;5.43;;;3.50;;
6997;SDS011;3539;47.982;12.238;2023-02-11T14:22:25;4.30;;;3.70;;
6997;SDS011;3539;47.982;12.238;2023-02-11T14:24:54;5.27;;;3.83;;
6997;SDS011;3539;47.982;12.238;2023-02-11T14:27:27;4.80;;;3.40;;
6997;SDS011;3539;47.982;12.238;2023-02-11T14:36:01;6.07;;;3.67;;
6997;SDS011;3539;47.982;12.238;2023-02-11T14:38:37;7.33;;;3.40;;
6997;SDS011;3539;47.982;12.238;2023-02-11T14:41:17;4.93;;;3.60;;
6997;SDS011;3539;47.982;12.238;2023-02-11T14:43:50;5.00;;;3.60;;
6997;SDS011;3539;47.982;12.238;2023-02-11T14:46:21;5.80;;;3.73;;
6997;SDS011;3539;47.982;12.238;2023-02-11T14:48:50;5.67;;;3.67;;
6997;SDS011;3539;47.982;12.238;2023-02-11T14:51:21;6.77;;;3.93;;
6997;SDS011;3539;47.982;12.238;2023-02-11T14:53:52;6.87;;;3.43;;
6997;SDS011;3539;47.982;12.238;2023-02-11T14:56:22;4.93;;;3.33;;
6997;SDS011;3539;47.982;12.238;2023-02-11T14:58:50;5.33;;;3.53;;
6997;SDS011;3539;47.982;12.238;2023-02-11T15:01:23;3.80;;;3.07;;
6997;SDS011;3539;47.982;12.238;2023-02-11T15:03:52;6.63;;;3.20;;
6997;SDS011;3539;47.982;12.238;2023-02-11T15:06:23;7.93;;;3.57;;
6997;SDS011;3539;47.982;12.238;2023-02-11T15:08:52;16.43;;;5.07;;
6997;SDS011;3539;47.982;12.238;2023-02-11T15:11:21;10.07;;;6.17;;
6997;SDS011;3539;47.982;12.238;2023-02-11T15:13:49;5.97;;;3.87;;
6997;SDS011;3539;47.982;12.238;2023-02-11T15:16:17;7.77;;;3.80;;
6997;SDS011;3539;47.982;12.238;2023-02-11T15:18:47;48.10;;;19.17;;
6997;SDS011;3539;47.982;12.238;2023-02-11T15:21:18;141.97;;;48.63;;
6997;SDS011;3539;47.982;12.238;2023-02-11T15:23:55;58.53;;;24.37;;
6997;SDS011;3539;47.982;12.238;2023-02-11T15:26:23;45.27;;;18.27;;
6997;SDS011;3539;47.982;12.238;2023-02-11T15:28:50;22.27;;;11.50;;